Airfield :
LOGIN :

Register | Disclaimer

   EN    FR    IT 

 










Legend :    VFR   Marginal VFR   IFR   Intensive IFR   Very Intensive IFR
Visi :
Ceiling :
>= 8 km
>= 3000ft
5 to 8 km
1000 to 3000 ft
1500m to 5 km
500 to 1000 ft
800 to 1500m
200 to 500 ft
< 800m
< 200 ft
Symbols :   Thunderstorms  Fog  Heavy snow  Heavy precipitations  Wind > 20 kt
SIGMETs :     Misc.  Thunderstorms  Icing  Turbulence  Mountain Waves  Volcanic Ashes






- Airport Elevation : 308 ft
- IATA code : POZ


EPPO - Poznan-Lawica

CURRENT METAR :
  • 050830Z 14015KT CAVOK 07/04 Q1002

EXPIRED METARs :
  • 050800Z 13012KT CAVOK 07/04 Q1001
  • 050730Z 12015KT CAVOK 06/03 Q1001
  • 050700Z 12016KT CAVOK 06/03 Q1000
  • 050630Z 12014KT CAVOK 05/03 Q1000
  • 050600Z 12013KT CAVOK 05/03 Q1000

TAF TAF EPPO
Valid from the 05 at 06:00 until the 06 at 06:00 UTC


050530Z 0506/0606 14012KT CAVOK
TEMPO 0506/0512 15016G26KT
TEMPO 0521/0606 14016G28KT



MET'MAP, your aeronautical weather chart ! - Copyright ORBIFLY December 2007 - Disclaimer

ORBIFLY MET'MAP TEAM :

Programming & Development : Alexandra Zaïnal
Concept & original design : Baudouin d'Aumeries
Assistance for programming : Marc-Olivier Méhu
Technical & hardware support : Manuel Goepfert

Contact : metmap@orbifly.com




SOURCES & CREDITS :

   NOAA